Terminal Aerodrome Forecast
Issued by NWS

Home | Current Version | Previous Version | Text Only | Print | Product List | Glossary On
Versions: 1 2 3 4 5 6 7 8 9 10 11 12 13 14 15 16 17 18 19 20 21 22 23 24
619
FTUS46 KSEW 300526
TAFHQM
TAF
KHQM 300526Z 3006/3106 24007KT P6SM OVC011
     FM301100 26004KT P6SM OVC009
     FM301800 24005KT P6SM OVC009
     FM302000 24008KT P6SM OVC019=

USA.gov is the U.S. government's official web portal to all federal, state and local government web resources and services.